sensor_id;sensor_type;location;lat;lon;timestamp;P1;durP1;ratioP1;P2;durP2;ratioP2
71947;SDS011;59820;55.076;38.766;2022-07-06T00:00:00;25.60;;;16.88;;
71947;SDS011;59820;55.076;38.766;2022-07-06T00:02:28;26.08;;;17.17;;
71947;SDS011;59820;55.076;38.766;2022-07-06T00:04:54;28.83;;;16.40;;
71947;SDS011;59820;55.076;38.766;2022-07-06T00:07:20;26.23;;;16.23;;
71947;SDS011;59820;55.076;38.766;2022-07-06T00:09:48;24.05;;;15.90;;
71947;SDS011;59820;55.076;38.766;2022-07-06T00:12:13;24.13;;;15.40;;
71947;SDS011;59820;55.076;38.766;2022-07-06T00:14:39;24.27;;;16.50;;
71947;SDS011;59820;55.076;38.766;2022-07-06T00:17:06;23.35;;;15.23;;
71947;SDS011;59820;55.076;38.766;2022-07-06T00:19:32;23.30;;;15.60;;
71947;SDS011;59820;55.076;38.766;2022-07-06T00:21:58;26.23;;;18.05;;
71947;SDS011;59820;55.076;38.766;2022-07-06T00:24:24;25.58;;;17.42;;
71947;SDS011;59820;55.076;38.766;2022-07-06T00:26:50;26.27;;;17.37;;
71947;SDS011;59820;55.076;38.766;2022-07-06T00:29:16;22.95;;;15.85;;
71947;SDS011;59820;55.076;38.766;2022-07-06T00:31:42;26.65;;;15.65;;
71947;SDS011;59820;55.076;38.766;2022-07-06T00:34:08;24.40;;;16.13;;
71947;SDS011;59820;55.076;38.766;2022-07-06T00:36:34;25.48;;;16.83;;
71947;SDS011;59820;55.076;38.766;2022-07-06T00:39:00;25.85;;;16.90;;
71947;SDS011;59820;55.076;38.766;2022-07-06T00:41:26;25.40;;;16.83;;
71947;SDS011;59820;55.076;38.766;2022-07-06T00:43:54;24.27;;;16.53;;
71947;SDS011;59820;55.076;38.766;2022-07-06T00:46:31;22.23;;;14.65;;
71947;SDS011;59820;55.076;38.766;2022-07-06T00:48:59;23.77;;;16.65;;
71947;SDS011;59820;55.076;38.766;2022-07-06T00:51:28;26.52;;;17.52;;
71947;SDS011;59820;55.076;38.766;2022-07-06T00:53:55;25.40;;;16.20;;
71947;SDS011;59820;55.076;38.766;2022-07-06T00:56:26;26.50;;;17.60;;
71947;SDS011;59820;55.076;38.766;2022-07-06T00:58:56;27.13;;;16.50;;
71947;SDS011;59820;55.076;38.766;2022-07-06T01:01:22;26.25;;;16.80;;
71947;SDS011;59820;55.076;38.766;2022-07-06T01:03:48;27.27;;;17.30;;
71947;SDS011;59820;55.076;38.766;2022-07-06T01:06:17;28.38;;;18.60;;
71947;SDS011;59820;55.076;38.766;2022-07-06T01:08:43;29.63;;;17.50;;
71947;SDS011;59820;55.076;38.766;2022-07-06T01:11:09;26.30;;;18.17;;
71947;SDS011;59820;55.076;38.766;2022-07-06T01:13:36;23.85;;;16.38;;
71947;SDS011;59820;55.076;38.766;2022-07-06T01:16:03;26.13;;;16.95;;
71947;SDS011;59820;55.076;38.766;2022-07-06T01:18:29;26.60;;;17.43;;
71947;SDS011;59820;55.076;38.766;2022-07-06T01:21:08;27.83;;;17.30;;
71947;SDS011;59820;55.076;38.766;2022-07-06T01:23:40;29.40;;;17.50;;
71947;SDS011;59820;55.076;38.766;2022-07-06T01:26:09;29.85;;;18.75;;
71947;SDS011;59820;55.076;38.766;2022-07-06T01:28:35;26.55;;;17.45;;
71947;SDS011;59820;55.076;38.766;2022-07-06T01:31:02;25.80;;;17.30;;
71947;SDS011;59820;55.076;38.766;2022-07-06T01:33:28;27.48;;;17.58;;
71947;SDS011;59820;55.076;38.766;2022-07-06T01:35:54;30.55;;;18.50;;
71947;SDS011;59820;55.076;38.766;2022-07-06T01:38:19;31.33;;;18.33;;
71947;SDS011;59820;55.076;38.766;2022-07-06T01:45:05;29.80;;;18.20;;
71947;SDS011;59820;55.076;38.766;2022-07-06T01:47:32;34.50;;;21.15;;
71947;SDS011;59820;55.076;38.766;2022-07-06T01:49:59;33.63;;;19.80;;
71947;SDS011;59820;55.076;38.766;2022-07-06T01:52:29;35.58;;;20.08;;
71947;SDS011;59820;55.076;38.766;2022-07-06T01:54:56;37.13;;;21.25;;
71947;SDS011;59820;55.076;38.766;2022-07-06T01:57:22;38.00;;;21.80;;
71947;SDS011;59820;55.076;38.766;2022-07-06T01:59:48;31.95;;;19.92;;
71947;SDS011;59820;55.076;38.766;2022-07-06T02:02:16;29.67;;;18.27;;
71947;SDS011;59820;55.076;38.766;2022-07-06T02:04:43;31.40;;;18.65;;
71947;SDS011;59820;55.076;38.766;2022-07-06T02:07:10;29.50;;;18.90;;
71947;SDS011;59820;55.076;38.766;2022-07-06T02:09:37;31.58;;;19.60;;
71947;SDS011;59820;55.076;38.766;2022-07-06T02:12:03;29.70;;;18.53;;
71947;SDS011;59820;55.076;38.766;2022-07-06T02:14:29;30.25;;;18.23;;
71947;SDS011;59820;55.076;38.766;2022-07-06T02:16:56;31.08;;;19.35;;
71947;SDS011;59820;55.076;38.766;2022-07-06T02:19:22;28.27;;;17.98;;
71947;SDS011;59820;55.076;38.766;2022-07-06T02:21:48;27.63;;;18.70;;
71947;SDS011;59820;55.076;38.766;2022-07-06T02:24:14;31.08;;;18.20;;
71947;SDS011;59820;55.076;38.766;2022-07-06T02:26:41;27.85;;;18.60;;
71947;SDS011;59820;55.076;38.766;2022-07-06T02:29:07;35.40;;;19.00;;
71947;SDS011;59820;55.076;38.766;2022-07-06T02:31:33;29.00;;;18.70;;
71947;SDS011;59820;55.076;38.766;2022-07-06T02:33:59;33.70;;;19.92;;
71947;SDS011;59820;55.076;38.766;2022-07-06T02:36:26;29.83;;;19.17;;
71947;SDS011;59820;55.076;38.766;2022-07-06T02:38:52;30.10;;;18.30;;
71947;SDS011;59820;55.076;38.766;2022-07-06T02:41:18;30.63;;;18.77;;
71947;SDS011;59820;55.076;38.766;2022-07-06T02:43:45;29.42;;;18.85;;
71947;SDS011;59820;55.076;38.766;2022-07-06T02:46:11;35.83;;;20.05;;
71947;SDS011;59820;55.076;38.766;2022-07-06T02:48:38;30.42;;;19.75;;
71947;SDS011;59820;55.076;38.766;2022-07-06T02:51:06;33.83;;;19.77;;
71947;SDS011;59820;55.076;38.766;2022-07-06T02:53:33;27.60;;;18.60;;
71947;SDS011;59820;55.076;38.766;2022-07-06T02:55:59;28.70;;;19.27;;
71947;SDS011;59820;55.076;38.766;2022-07-06T02:58:26;28.73;;;18.60;;
71947;SDS011;59820;55.076;38.766;2022-07-06T03:00:53;25.38;;;17.48;;
71947;SDS011;59820;55.076;38.766;2022-07-06T03:03:18;25.77;;;17.30;;
71947;SDS011;59820;55.076;38.766;2022-07-06T03:05:45;25.48;;;17.65;;
71947;SDS011;59820;55.076;38.766;2022-07-06T03:08:15;25.48;;;17.63;;
71947;SDS011;59820;55.076;38.766;2022-07-06T03:10:41;26.50;;;17.75;;
71947;SDS011;59820;55.076;38.766;2022-07-06T03:13:07;28.20;;;17.83;;
71947;SDS011;59820;55.076;38.766;2022-07-06T03:15:33;24.13;;;16.60;;
71947;SDS011;59820;55.076;38.766;2022-07-06T03:17:59;24.23;;;16.40;;
71947;SDS011;59820;55.076;38.766;2022-07-06T03:20:26;27.83;;;17.63;;
71947;SDS011;59820;55.076;38.766;2022-07-06T03:22:52;24.53;;;17.30;;
71947;SDS011;59820;55.076;38.766;2022-07-06T03:25:18;22.58;;;16.35;;
71947;SDS011;59820;55.076;38.766;2022-07-06T03:27:44;20.90;;;16.23;;
71947;SDS011;59820;55.076;38.766;2022-07-06T03:30:12;24.55;;;16.92;;
71947;SDS011;59820;55.076;38.766;2022-07-06T03:32:40;24.77;;;16.60;;
71947;SDS011;59820;55.076;38.766;2022-07-06T03:35:08;27.53;;;16.77;;
71947;SDS011;59820;55.076;38.766;2022-07-06T03:37:34;26.88;;;17.13;;
71947;SDS011;59820;55.076;38.766;2022-07-06T03:39:59;21.02;;;15.45;;
71947;SDS011;59820;55.076;38.766;2022-07-06T03:42:26;24.58;;;15.98;;
71947;SDS011;59820;55.076;38.766;2022-07-06T03:44:52;23.33;;;16.47;;
71947;SDS011;59820;55.076;38.766;2022-07-06T03:47:18;31.08;;;17.98;;
71947;SDS011;59820;55.076;38.766;2022-07-06T03:49:46;27.65;;;18.08;;
71947;SDS011;59820;55.076;38.766;2022-07-06T03:52:13;23.02;;;16.85;;
71947;SDS011;59820;55.076;38.766;2022-07-06T03:54:44;24.07;;;16.87;;
71947;SDS011;59820;55.076;38.766;2022-07-06T03:57:16;25.60;;;15.55;;
71947;SDS011;59820;55.076;38.766;2022-07-06T03:59:42;23.83;;;16.67;;
71947;SDS011;59820;55.076;38.766;2022-07-06T04:02:09;25.95;;;17.00;;
71947;SDS011;59820;55.076;38.766;2022-07-06T04:04:36;23.83;;;16.77;;
71947;SDS011;59820;55.076;38.766;2022-07-06T04:07:03;24.60;;;17.20;;
71947;SDS011;59820;55.076;38.766;2022-07-06T04:09:30;27.73;;;16.38;;
71947;SDS011;59820;55.076;38.766;2022-07-06T04:11:56;25.15;;;16.52;;
71947;SDS011;59820;55.076;38.766;2022-07-06T04:14:21;26.13;;;16.83;;
71947;SDS011;59820;55.076;38.766;2022-07-06T04:16:49;22.52;;;15.63;;
71947;SDS011;59820;55.076;38.766;2022-07-06T04:19:14;21.33;;;15.55;;
71947;SDS011;59820;55.076;38.766;2022-07-06T04:21:40;23.90;;;16.23;;
71947;SDS011;59820;55.076;38.766;2022-07-06T04:24:07;24.37;;;16.43;;
71947;SDS011;59820;55.076;38.766;2022-07-06T04:26:35;20.92;;;15.18;;
71947;SDS011;59820;55.076;38.766;2022-07-06T04:29:02;21.90;;;14.38;;
71947;SDS011;59820;55.076;38.766;2022-07-06T04:31:29;20.98;;;15.35;;
71947;SDS011;59820;55.076;38.766;2022-07-06T04:33:55;28.67;;;17.83;;
71947;SDS011;59820;55.076;38.766;2022-07-06T04:36:21;23.37;;;16.00;;
71947;SDS011;59820;55.076;38.766;2022-07-06T04:38:47;23.65;;;16.27;;
71947;SDS011;59820;55.076;38.766;2022-07-06T04:41:14;21.90;;;15.07;;
71947;SDS011;59820;55.076;38.766;2022-07-06T04:43:41;23.42;;;15.95;;
71947;SDS011;59820;55.076;38.766;2022-07-06T04:46:11;21.00;;;15.57;;
71947;SDS011;59820;55.076;38.766;2022-07-06T04:48:40;23.15;;;16.02;;
71947;SDS011;59820;55.076;38.766;2022-07-06T04:51:10;24.80;;;16.20;;
71947;SDS011;59820;55.076;38.766;2022-07-06T04:53:36;22.23;;;14.45;;
71947;SDS011;59820;55.076;38.766;2022-07-06T04:56:03;21.48;;;14.55;;
71947;SDS011;59820;55.076;38.766;2022-07-06T04:58:32;22.63;;;17.00;;
71947;SDS011;59820;55.076;38.766;2022-07-06T05:00:58;19.33;;;13.48;;
71947;SDS011;59820;55.076;38.766;2022-07-06T05:03:24;19.63;;;13.82;;
71947;SDS011;59820;55.076;38.766;2022-07-06T05:05:51;17.75;;;13.73;;
71947;SDS011;59820;55.076;38.766;2022-07-06T05:08:17;19.13;;;13.82;;
71947;SDS011;59820;55.076;38.766;2022-07-06T05:10:45;21.60;;;13.80;;
71947;SDS011;59820;55.076;38.766;2022-07-06T05:13:11;18.85;;;14.23;;
71947;SDS011;59820;55.076;38.766;2022-07-06T05:15:37;19.05;;;13.90;;
71947;SDS011;59820;55.076;38.766;2022-07-06T05:18:03;22.23;;;14.50;;
71947;SDS011;59820;55.076;38.766;2022-07-06T05:20:30;19.93;;;14.20;;
71947;SDS011;59820;55.076;38.766;2022-07-06T05:22:57;20.30;;;14.20;;
71947;SDS011;59820;55.076;38.766;2022-07-06T05:25:28;21.60;;;14.93;;
71947;SDS011;59820;55.076;38.766;2022-07-06T05:27:54;19.15;;;14.13;;
71947;SDS011;59820;55.076;38.766;2022-07-06T05:30:20;18.73;;;14.17;;
71947;SDS011;59820;55.076;38.766;2022-07-06T05:32:46;21.05;;;13.90;;
71947;SDS011;59820;55.076;38.766;2022-07-06T05:35:13;18.98;;;14.40;;
71947;SDS011;59820;55.076;38.766;2022-07-06T05:37:39;20.52;;;14.38;;
71947;SDS011;59820;55.076;38.766;2022-07-06T05:40:05;23.80;;;14.63;;
71947;SDS011;59820;55.076;38.766;2022-07-06T05:42:31;20.37;;;14.90;;
71947;SDS011;59820;55.076;38.766;2022-07-06T05:44:58;21.25;;;14.88;;
71947;SDS011;59820;55.076;38.766;2022-07-06T05:47:26;19.98;;;15.52;;
71947;SDS011;59820;55.076;38.766;2022-07-06T05:50:12;20.13;;;14.80;;
71947;SDS011;59820;55.076;38.766;2022-07-06T05:52:43;20.48;;;15.05;;
71947;SDS011;59820;55.076;38.766;2022-07-06T05:55:20;20.67;;;14.87;;
71947;SDS011;59820;55.076;38.766;2022-07-06T05:57:46;21.40;;;14.63;;
71947;SDS011;59820;55.076;38.766;2022-07-06T06:00:12;19.02;;;15.13;;
71947;SDS011;59820;55.076;38.766;2022-07-06T06:02:46;18.38;;;14.02;;
71947;SDS011;59820;55.076;38.766;2022-07-06T06:05:15;19.43;;;14.97;;
71947;SDS011;59820;55.076;38.766;2022-07-06T06:07:44;20.35;;;14.90;;
71947;SDS011;59820;55.076;38.766;2022-07-06T06:10:29;21.92;;;15.38;;
71947;SDS011;59820;55.076;38.766;2022-07-06T06:12:58;22.25;;;15.65;;
71947;SDS011;59820;55.076;38.766;2022-07-06T06:15:25;18.63;;;13.93;;
71947;SDS011;59820;55.076;38.766;2022-07-06T06:17:51;20.07;;;14.60;;
71947;SDS011;59820;55.076;38.766;2022-07-06T06:20:17;19.90;;;14.20;;
71947;SDS011;59820;55.076;38.766;2022-07-06T06:22:43;19.88;;;15.23;;
71947;SDS011;59820;55.076;38.766;2022-07-06T06:25:11;19.15;;;13.93;;
71947;SDS011;59820;55.076;38.766;2022-07-06T06:27:40;22.10;;;14.40;;
71947;SDS011;59820;55.076;38.766;2022-07-06T06:30:07;16.88;;;12.88;;
71947;SDS011;59820;55.076;38.766;2022-07-06T06:32:34;18.77;;;12.88;;
71947;SDS011;59820;55.076;38.766;2022-07-06T06:35:03;18.23;;;13.77;;
71947;SDS011;59820;55.076;38.766;2022-07-06T06:37:30;17.88;;;13.73;;
71947;SDS011;59820;55.076;38.766;2022-07-06T06:39:56;18.33;;;13.10;;
71947;SDS011;59820;55.076;38.766;2022-07-06T06:42:22;17.15;;;13.68;;
71947;SDS011;59820;55.076;38.766;2022-07-06T06:44:50;18.48;;;13.35;;
71947;SDS011;59820;55.076;38.766;2022-07-06T06:47:16;18.15;;;12.98;;
71947;SDS011;59820;55.076;38.766;2022-07-06T06:49:42;18.30;;;13.32;;
71947;SDS011;59820;55.076;38.766;2022-07-06T06:52:08;19.73;;;14.45;;
71947;SDS011;59820;55.076;38.766;2022-07-06T06:54:34;19.17;;;14.53;;
71947;SDS011;59820;55.076;38.766;2022-07-06T06:57:00;19.60;;;15.13;;
71947;SDS011;59820;55.076;38.766;2022-07-06T06:59:26;20.63;;;14.35;;
71947;SDS011;59820;55.076;38.766;2022-07-06T07:01:52;20.67;;;14.57;;
71947;SDS011;59820;55.076;38.766;2022-07-06T07:04:18;19.60;;;14.70;;
71947;SDS011;59820;55.076;38.766;2022-07-06T07:06:44;20.95;;;14.73;;
71947;SDS011;59820;55.076;38.766;2022-07-06T07:09:12;22.85;;;15.40;;
71947;SDS011;59820;55.076;38.766;2022-07-06T07:11:37;17.83;;;13.88;;
71947;SDS011;59820;55.076;38.766;2022-07-06T07:14:03;18.13;;;14.43;;
71947;SDS011;59820;55.076;38.766;2022-07-06T07:16:29;20.10;;;14.40;;
71947;SDS011;59820;55.076;38.766;2022-07-06T07:18:55;23.77;;;14.25;;
71947;SDS011;59820;55.076;38.766;2022-07-06T07:21:21;19.38;;;13.52;;
71947;SDS011;59820;55.076;38.766;2022-07-06T07:23:48;16.67;;;13.55;;
71947;SDS011;59820;55.076;38.766;2022-07-06T07:26:16;18.23;;;13.88;;
71947;SDS011;59820;55.076;38.766;2022-07-06T07:28:42;16.70;;;12.90;;
71947;SDS011;59820;55.076;38.766;2022-07-06T07:31:08;21.40;;;13.43;;
71947;SDS011;59820;55.076;38.766;2022-07-06T07:33:34;17.25;;;13.60;;
71947;SDS011;59820;55.076;38.766;2022-07-06T07:36:01;21.10;;;14.00;;
71947;SDS011;59820;55.076;38.766;2022-07-06T07:38:27;18.90;;;13.45;;
71947;SDS011;59820;55.076;38.766;2022-07-06T07:40:53;20.80;;;15.10;;
71947;SDS011;59820;55.076;38.766;2022-07-06T07:43:19;19.45;;;13.93;;
71947;SDS011;59820;55.076;38.766;2022-07-06T07:45:46;18.27;;;13.48;;
71947;SDS011;59820;55.076;38.766;2022-07-06T07:48:13;16.20;;;13.35;;
71947;SDS011;59820;55.076;38.766;2022-07-06T07:54:52;17.52;;;13.75;;
71947;SDS011;59820;55.076;38.766;2022-07-06T07:57:18;19.33;;;12.93;;
71947;SDS011;59820;55.076;38.766;2022-07-06T07:59:44;17.08;;;13.30;;
71947;SDS011;59820;55.076;38.766;2022-07-06T08:02:11;16.70;;;13.10;;
71947;SDS011;59820;55.076;38.766;2022-07-06T08:04:37;16.55;;;13.40;;
71947;SDS011;59820;55.076;38.766;2022-07-06T08:07:03;25.95;;;14.30;;
71947;SDS011;59820;55.076;38.766;2022-07-06T08:09:29;16.00;;;12.65;;
71947;SDS011;59820;55.076;38.766;2022-07-06T08:11:55;17.20;;;13.07;;
71947;SDS011;59820;55.076;38.766;2022-07-06T08:14:22;19.53;;;13.07;;
71947;SDS011;59820;55.076;38.766;2022-07-06T08:16:48;15.18;;;12.38;;
71947;SDS011;59820;55.076;38.766;2022-07-06T08:19:14;34.28;;;25.45;;
71947;SDS011;59820;55.076;38.766;2022-07-06T08:21:40;16.92;;;13.10;;
71947;SDS011;59820;55.076;38.766;2022-07-06T08:24:07;18.70;;;13.90;;
71947;SDS011;59820;55.076;38.766;2022-07-06T08:26:34;17.67;;;12.90;;
71947;SDS011;59820;55.076;38.766;2022-07-06T08:29:00;18.88;;;13.43;;
71947;SDS011;59820;55.076;38.766;2022-07-06T08:31:26;17.88;;;14.00;;
71947;SDS011;59820;55.076;38.766;2022-07-06T08:33:53;17.45;;;12.52;;
71947;SDS011;59820;55.076;38.766;2022-07-06T08:36:20;15.70;;;13.43;;
71947;SDS011;59820;55.076;38.766;2022-07-06T08:38:46;16.92;;;12.32;;
71947;SDS011;59820;55.076;38.766;2022-07-06T08:41:14;17.98;;;13.43;;
71947;SDS011;59820;55.076;38.766;2022-07-06T08:43:41;20.58;;;13.27;;
71947;SDS011;59820;55.076;38.766;2022-07-06T08:46:08;17.92;;;13.40;;
71947;SDS011;59820;55.076;38.766;2022-07-06T08:48:37;17.37;;;12.77;;
71947;SDS011;59820;55.076;38.766;2022-07-06T08:51:05;17.85;;;13.27;;
71947;SDS011;59820;55.076;38.766;2022-07-06T08:53:33;17.50;;;12.80;;
71947;SDS011;59820;55.076;38.766;2022-07-06T08:56:00;14.95;;;12.98;;
71947;SDS011;59820;55.076;38.766;2022-07-06T08:58:29;15.43;;;12.55;;
71947;SDS011;59820;55.076;38.766;2022-07-06T09:00:55;18.60;;;13.13;;
71947;SDS011;59820;55.076;38.766;2022-07-06T09:03:22;16.35;;;12.80;;
71947;SDS011;59820;55.076;38.766;2022-07-06T09:05:49;15.93;;;13.02;;
71947;SDS011;59820;55.076;38.766;2022-07-06T09:08:18;14.95;;;13.20;;
71947;SDS011;59820;55.076;38.766;2022-07-06T09:10:45;15.93;;;12.83;;
71947;SDS011;59820;55.076;38.766;2022-07-06T09:13:10;17.90;;;12.60;;
71947;SDS011;59820;55.076;38.766;2022-07-06T09:15:37;16.40;;;13.13;;
71947;SDS011;59820;55.076;38.766;2022-07-06T09:18:05;17.07;;;13.40;;
71947;SDS011;59820;55.076;38.766;2022-07-06T09:20:33;15.02;;;12.90;;
71947;SDS011;59820;55.076;38.766;2022-07-06T09:23:00;18.17;;;13.68;;
71947;SDS011;59820;55.076;38.766;2022-07-06T09:25:28;15.20;;;13.13;;
71947;SDS011;59820;55.076;38.766;2022-07-06T09:27:55;17.00;;;13.10;;
71947;SDS011;59820;55.076;38.766;2022-07-06T09:30:23;18.83;;;13.07;;
71947;SDS011;59820;55.076;38.766;2022-07-06T09:32:56;17.92;;;13.70;;
71947;SDS011;59820;55.076;38.766;2022-07-06T09:35:25;15.35;;;12.95;;
71947;SDS011;59820;55.076;38.766;2022-07-06T09:38:03;17.88;;;13.13;;
71947;SDS011;59820;55.076;38.766;2022-07-06T09:40:44;15.32;;;13.13;;
71947;SDS011;59820;55.076;38.766;2022-07-06T09:45:45;16.13;;;13.32;;
71947;SDS011;59820;55.076;38.766;2022-07-06T09:48:17;25.45;;;20.50;;
71947;SDS011;59820;55.076;38.766;2022-07-06T09:50:45;17.00;;;12.98;;
71947;SDS011;59820;55.076;38.766;2022-07-06T09:53:13;15.68;;;12.48;;
71947;SDS011;59820;55.076;38.766;2022-07-06T09:55:47;14.43;;;12.23;;
71947;SDS011;59820;55.076;38.766;2022-07-06T09:58:14;15.20;;;12.05;;
71947;SDS011;59820;55.076;38.766;2022-07-06T10:00:44;16.65;;;12.90;;
71947;SDS011;59820;55.076;38.766;2022-07-06T10:03:12;16.25;;;12.52;;
71947;SDS011;59820;55.076;38.766;2022-07-06T10:05:41;14.82;;;12.50;;
71947;SDS011;59820;55.076;38.766;2022-07-06T10:08:08;14.30;;;12.77;;
71947;SDS011;59820;55.076;38.766;2022-07-06T10:10:37;15.50;;;13.05;;
71947;SDS011;59820;55.076;38.766;2022-07-06T10:13:04;17.48;;;11.98;;
71947;SDS011;59820;55.076;38.766;2022-07-06T10:15:31;14.27;;;12.77;;
71947;SDS011;59820;55.076;38.766;2022-07-06T10:18:03;21.55;;;17.95;;
71947;SDS011;59820;55.076;38.766;2022-07-06T10:20:32;15.37;;;12.93;;
71947;SDS011;59820;55.076;38.766;2022-07-06T10:23:00;17.85;;;13.23;;
71947;SDS011;59820;55.076;38.766;2022-07-06T10:25:27;17.92;;;13.18;;
71947;SDS011;59820;55.076;38.766;2022-07-06T10:27:54;15.95;;;12.73;;
71947;SDS011;59820;55.076;38.766;2022-07-06T10:30:22;13.55;;;12.15;;
71947;SDS011;59820;55.076;38.766;2022-07-06T10:32:49;16.97;;;12.93;;
71947;SDS011;59820;55.076;38.766;2022-07-06T10:35:19;14.57;;;12.68;;
71947;SDS011;59820;55.076;38.766;2022-07-06T10:37:46;16.70;;;12.43;;
71947;SDS011;59820;55.076;38.766;2022-07-06T10:40:40;16.60;;;13.50;;
71947;SDS011;59820;55.076;38.766;2022-07-06T10:43:38;15.15;;;12.93;;
71947;SDS011;59820;55.076;38.766;2022-07-06T10:46:10;14.93;;;12.20;;
71947;SDS011;59820;55.076;38.766;2022-07-06T10:48:43;19.17;;;14.95;;
71947;SDS011;59820;55.076;38.766;2022-07-06T10:51:21;18.23;;;13.80;;
71947;SDS011;59820;55.076;38.766;2022-07-06T10:53:57;14.57;;;12.82;;
71947;SDS011;59820;55.076;38.766;2022-07-06T10:56:33;18.95;;;12.98;;
71947;SDS011;59820;55.076;38.766;2022-07-06T10:59:02;27.73;;;19.77;;
71947;SDS011;59820;55.076;38.766;2022-07-06T11:01:35;15.98;;;12.35;;
71947;SDS011;59820;55.076;38.766;2022-07-06T11:06:31;14.95;;;12.02;;
71947;SDS011;59820;55.076;38.766;2022-07-06T11:08:59;13.55;;;12.15;;
71947;SDS011;59820;55.076;38.766;2022-07-06T11:11:26;13.97;;;12.20;;
71947;SDS011;59820;55.076;38.766;2022-07-06T11:14:08;14.52;;;12.38;;
71947;SDS011;59820;55.076;38.766;2022-07-06T11:22:14;16.85;;;12.38;;
71947;SDS011;59820;55.076;38.766;2022-07-06T11:24:43;14.63;;;11.53;;
71947;SDS011;59820;55.076;38.766;2022-07-06T11:27:09;15.50;;;13.13;;
71947;SDS011;59820;55.076;38.766;2022-07-06T11:29:35;13.48;;;11.88;;
71947;SDS011;59820;55.076;38.766;2022-07-06T11:32:06;13.00;;;11.23;;
71947;SDS011;59820;55.076;38.766;2022-07-06T11:34:39;15.25;;;11.50;;
71947;SDS011;59820;55.076;38.766;2022-07-06T11:37:08;16.60;;;14.40;;
71947;SDS011;59820;55.076;38.766;2022-07-06T11:39:37;13.93;;;11.55;;
71947;SDS011;59820;55.076;38.766;2022-07-06T11:42:08;13.65;;;11.43;;
71947;SDS011;59820;55.076;38.766;2022-07-06T11:44:35;13.57;;;11.60;;
71947;SDS011;59820;55.076;38.766;2022-07-06T11:47:02;14.07;;;11.65;;
71947;SDS011;59820;55.076;38.766;2022-07-06T11:49:32;24.65;;;14.70;;
71947;SDS011;59820;55.076;38.766;2022-07-06T11:52:10;14.55;;;11.75;;
71947;SDS011;59820;55.076;38.766;2022-07-06T11:54:38;20.33;;;14.63;;
71947;SDS011;59820;55.076;38.766;2022-07-06T11:57:07;18.35;;;13.20;;
71947;SDS011;59820;55.076;38.766;2022-07-06T11:59:35;16.92;;;12.63;;
71947;SDS011;59820;55.076;38.766;2022-07-06T12:02:04;16.07;;;12.03;;
71947;SDS011;59820;55.076;38.766;2022-07-06T12:04:35;15.93;;;13.20;;
71947;SDS011;59820;55.076;38.766;2022-07-06T12:07:04;15.75;;;13.45;;
71947;SDS011;59820;55.076;38.766;2022-07-06T12:09:33;16.92;;;13.55;;
71947;SDS011;59820;55.076;38.766;2022-07-06T12:12:03;16.70;;;13.60;;
71947;SDS011;59820;55.076;38.766;2022-07-06T12:14:35;16.33;;;13.90;;
71947;SDS011;59820;55.076;38.766;2022-07-06T12:17:10;18.92;;;13.60;;
71947;SDS011;59820;55.076;38.766;2022-07-06T12:19:40;17.98;;;13.43;;
71947;SDS011;59820;55.076;38.766;2022-07-06T12:22:08;15.57;;;13.48;;
71947;SDS011;59820;55.076;38.766;2022-07-06T12:24:37;18.58;;;14.52;;
71947;SDS011;59820;55.076;38.766;2022-07-06T12:27:14;16.37;;;13.87;;
71947;SDS011;59820;55.076;38.766;2022-07-06T12:29:42;13.90;;;12.35;;
71947;SDS011;59820;55.076;38.766;2022-07-06T12:32:21;14.93;;;11.90;;
71947;SDS011;59820;55.076;38.766;2022-07-06T12:34:56;14.55;;;11.48;;
71947;SDS011;59820;55.076;38.766;2022-07-06T12:37:31;14.40;;;11.02;;
71947;SDS011;59820;55.076;38.766;2022-07-06T12:39:58;18.73;;;11.90;;
71947;SDS011;59820;55.076;38.766;2022-07-06T12:42:23;13.95;;;10.77;;
71947;SDS011;59820;55.076;38.766;2022-07-06T12:44:50;13.30;;;10.50;;
71947;SDS011;59820;55.076;38.766;2022-07-06T12:47:17;13.45;;;10.63;;
71947;SDS011;59820;55.076;38.766;2022-07-06T12:49:46;12.97;;;10.20;;
71947;SDS011;59820;55.076;38.766;2022-07-06T12:52:14;12.20;;;10.00;;
71947;SDS011;59820;55.076;38.766;2022-07-06T12:54:48;13.05;;;10.35;;
71947;SDS011;59820;55.076;38.766;2022-07-06T12:57:20;11.75;;;9.60;;
71947;SDS011;59820;55.076;38.766;2022-07-06T13:02:24;13.50;;;10.27;;
71947;SDS011;59820;55.076;38.766;2022-07-06T13:04:58;15.45;;;11.70;;
71947;SDS011;59820;55.076;38.766;2022-07-06T13:07:26;21.63;;;16.17;;
71947;SDS011;59820;55.076;38.766;2022-07-06T13:09:54;15.27;;;11.95;;
71947;SDS011;59820;55.076;38.766;2022-07-06T13:12:21;16.25;;;11.82;;
71947;SDS011;59820;55.076;38.766;2022-07-06T13:14:48;18.80;;;12.07;;
71947;SDS011;59820;55.076;38.766;2022-07-06T13:17:15;16.48;;;12.57;;
71947;SDS011;59820;55.076;38.766;2022-07-06T13:19:41;16.27;;;11.52;;
71947;SDS011;59820;55.076;38.766;2022-07-06T13:22:07;16.27;;;11.80;;
71947;SDS011;59820;55.076;38.766;2022-07-06T13:24:33;16.93;;;11.83;;
71947;SDS011;59820;55.076;38.766;2022-07-06T13:27:02;16.98;;;12.52;;
71947;SDS011;59820;55.076;38.766;2022-07-06T13:29:28;16.83;;;12.82;;
71947;SDS011;59820;55.076;38.766;2022-07-06T13:31:55;17.25;;;12.77;;
71947;SDS011;59820;55.076;38.766;2022-07-06T13:34:21;16.27;;;13.40;;
71947;SDS011;59820;55.076;38.766;2022-07-06T13:40:28;18.73;;;13.02;;
71947;SDS011;59820;55.076;38.766;2022-07-06T13:42:58;15.85;;;12.40;;
71947;SDS011;59820;55.076;38.766;2022-07-06T13:45:24;21.13;;;13.25;;
71947;SDS011;59820;55.076;38.766;2022-07-06T13:47:50;18.55;;;12.52;;
71947;SDS011;59820;55.076;38.766;2022-07-06T13:50:16;18.08;;;12.68;;
71947;SDS011;59820;55.076;38.766;2022-07-06T13:52:47;16.02;;;12.07;;
71947;SDS011;59820;55.076;38.766;2022-07-06T13:55:14;18.23;;;12.52;;
71947;SDS011;59820;55.076;38.766;2022-07-06T13:57:42;27.47;;;15.93;;
71947;SDS011;59820;55.076;38.766;2022-07-06T14:00:13;17.92;;;11.68;;
71947;SDS011;59820;55.076;38.766;2022-07-06T14:02:40;21.23;;;12.75;;
71947;SDS011;59820;55.076;38.766;2022-07-06T14:05:06;16.65;;;11.50;;
71947;SDS011;59820;55.076;38.766;2022-07-06T14:10:31;14.83;;;11.97;;
71947;SDS011;59820;55.076;38.766;2022-07-06T14:13:00;19.13;;;12.00;;
71947;SDS011;59820;55.076;38.766;2022-07-06T14:15:28;14.75;;;11.05;;
71947;SDS011;59820;55.076;38.766;2022-07-06T14:17:57;15.57;;;11.32;;
71947;SDS011;59820;55.076;38.766;2022-07-06T14:20:32;16.98;;;11.63;;
71947;SDS011;59820;55.076;38.766;2022-07-06T14:23:10;15.43;;;12.00;;
71947;SDS011;59820;55.076;38.766;2022-07-06T14:25:36;19.80;;;12.90;;
71947;SDS011;59820;55.076;38.766;2022-07-06T14:28:02;17.95;;;12.57;;
71947;SDS011;59820;55.076;38.766;2022-07-06T14:30:35;18.50;;;13.18;;
71947;SDS011;59820;55.076;38.766;2022-07-06T14:33:05;19.90;;;12.63;;
71947;SDS011;59820;55.076;38.766;2022-07-06T14:35:36;18.97;;;13.80;;
71947;SDS011;59820;55.076;38.766;2022-07-06T14:38:09;19.70;;;14.35;;
71947;SDS011;59820;55.076;38.766;2022-07-06T14:40:36;19.35;;;14.68;;